sensor_id;sensor_type;location;lat;lon;timestamp;P1;durP1;ratioP1;P2;durP2;ratioP2
11531;SDS011;5822;51.000;5.874;2023-12-20T00:00:13;23.77;;;22.37;;
11531;SDS011;5822;51.000;5.874;2023-12-20T00:02:39;23.00;;;21.70;;
11531;SDS011;5822;51.000;5.874;2023-12-20T00:05:05;23.87;;;22.47;;
11531;SDS011;5822;51.000;5.874;2023-12-20T00:07:31;23.35;;;21.95;;
11531;SDS011;5822;51.000;5.874;2023-12-20T00:09:57;22.63;;;21.33;;
11531;SDS011;5822;51.000;5.874;2023-12-20T00:12:22;23.15;;;21.85;;
11531;SDS011;5822;51.000;5.874;2023-12-20T00:14:48;23.10;;;21.70;;
11531;SDS011;5822;51.000;5.874;2023-12-20T00:17:14;23.20;;;21.80;;
11531;SDS011;5822;51.000;5.874;2023-12-20T00:19:39;23.30;;;21.93;;
11531;SDS011;5822;51.000;5.874;2023-12-20T00:22:05;22.63;;;21.33;;
11531;SDS011;5822;51.000;5.874;2023-12-20T00:24:31;21.30;;;20.00;;
11531;SDS011;5822;51.000;5.874;2023-12-20T00:26:56;19.60;;;18.40;;
11531;SDS011;5822;51.000;5.874;2023-12-20T00:29:22;18.30;;;17.20;;
11531;SDS011;5822;51.000;5.874;2023-12-20T00:31:47;17.97;;;16.87;;
11531;SDS011;5822;51.000;5.874;2023-12-20T00:34:13;17.60;;;16.50;;
11531;SDS011;5822;51.000;5.874;2023-12-20T00:36:39;17.23;;;16.23;;
11531;SDS011;5822;51.000;5.874;2023-12-20T00:39:04;17.20;;;16.10;;
11531;SDS011;5822;51.000;5.874;2023-12-20T00:41:31;17.10;;;16.00;;
11531;SDS011;5822;51.000;5.874;2023-12-20T00:43:57;16.70;;;15.60;;
11531;SDS011;5822;51.000;5.874;2023-12-20T00:46:22;16.80;;;15.70;;
11531;SDS011;5822;51.000;5.874;2023-12-20T00:48:48;17.27;;;16.08;;
11531;SDS011;5822;51.000;5.874;2023-12-20T00:51:14;16.83;;;15.82;;
11531;SDS011;5822;51.000;5.874;2023-12-20T00:53:39;16.80;;;15.70;;
11531;SDS011;5822;51.000;5.874;2023-12-20T00:56:05;17.10;;;16.00;;
11531;SDS011;5822;51.000;5.874;2023-12-20T00:58:31;16.58;;;15.50;;
11531;SDS011;5822;51.000;5.874;2023-12-20T01:00:57;16.20;;;15.10;;
11531;SDS011;5822;51.000;5.874;2023-12-20T01:03:23;16.37;;;15.27;;
11531;SDS011;5822;51.000;5.874;2023-12-20T01:05:48;16.20;;;15.10;;
11531;SDS011;5822;51.000;5.874;2023-12-20T01:08:14;16.70;;;15.60;;
11531;SDS011;5822;51.000;5.874;2023-12-20T01:10:40;16.60;;;15.50;;
11531;SDS011;5822;51.000;5.874;2023-12-20T01:13:05;16.00;;;15.00;;
11531;SDS011;5822;51.000;5.874;2023-12-20T01:15:31;15.83;;;14.83;;
11531;SDS011;5822;51.000;5.874;2023-12-20T01:17:57;15.77;;;14.77;;
11531;SDS011;5822;51.000;5.874;2023-12-20T01:20:24;15.80;;;14.80;;
11531;SDS011;5822;51.000;5.874;2023-12-20T01:22:50;15.63;;;14.63;;
11531;SDS011;5822;51.000;5.874;2023-12-20T01:25:16;15.90;;;14.90;;
11531;SDS011;5822;51.000;5.874;2023-12-20T01:27:41;15.70;;;14.70;;
11531;SDS011;5822;51.000;5.874;2023-12-20T01:30:07;16.27;;;15.20;;
11531;SDS011;5822;51.000;5.874;2023-12-20T01:32:33;15.90;;;14.90;;
11531;SDS011;5822;51.000;5.874;2023-12-20T01:34:59;16.13;;;15.03;;
11531;SDS011;5822;51.000;5.874;2023-12-20T01:37:24;15.77;;;14.77;;
11531;SDS011;5822;51.000;5.874;2023-12-20T01:39:51;16.20;;;15.10;;
11531;SDS011;5822;51.000;5.874;2023-12-20T01:42:18;15.60;;;14.60;;
11531;SDS011;5822;51.000;5.874;2023-12-20T01:44:43;15.50;;;14.50;;
11531;SDS011;5822;51.000;5.874;2023-12-20T01:47:09;16.00;;;15.00;;
11531;SDS011;5822;51.000;5.874;2023-12-20T01:49:35;16.23;;;15.13;;
11531;SDS011;5822;51.000;5.874;2023-12-20T01:52:00;16.20;;;15.10;;
11531;SDS011;5822;51.000;5.874;2023-12-20T01:54:26;16.33;;;15.23;;
11531;SDS011;5822;51.000;5.874;2023-12-20T01:56:52;16.00;;;14.90;;
11531;SDS011;5822;51.000;5.874;2023-12-20T01:59:18;16.00;;;15.00;;
11531;SDS011;5822;51.000;5.874;2023-12-20T02:01:45;15.85;;;14.85;;
11531;SDS011;5822;51.000;5.874;2023-12-20T02:04:11;16.00;;;14.90;;
11531;SDS011;5822;51.000;5.874;2023-12-20T02:06:37;16.50;;;15.40;;
11531;SDS011;5822;51.000;5.874;2023-12-20T02:09:05;16.70;;;15.50;;
11531;SDS011;5822;51.000;5.874;2023-12-20T02:11:32;16.60;;;15.50;;
11531;SDS011;5822;51.000;5.874;2023-12-20T02:13:58;16.48;;;15.38;;
11531;SDS011;5822;51.000;5.874;2023-12-20T02:16:24;16.85;;;15.70;;
11531;SDS011;5822;51.000;5.874;2023-12-20T02:18:49;16.57;;;15.47;;
11531;SDS011;5822;51.000;5.874;2023-12-20T02:21:15;16.57;;;15.47;;
11531;SDS011;5822;51.000;5.874;2023-12-20T02:23:41;16.30;;;15.20;;
11531;SDS011;5822;51.000;5.874;2023-12-20T02:26:06;16.27;;;15.27;;
11531;SDS011;5822;51.000;5.874;2023-12-20T02:28:32;16.50;;;15.40;;
11531;SDS011;5822;51.000;5.874;2023-12-20T02:30:58;16.80;;;15.60;;
11531;SDS011;5822;51.000;5.874;2023-12-20T02:33:24;17.00;;;15.80;;
11531;SDS011;5822;51.000;5.874;2023-12-20T02:35:49;16.50;;;15.40;;
11531;SDS011;5822;51.000;5.874;2023-12-20T02:38:15;16.33;;;15.30;;
11531;SDS011;5822;51.000;5.874;2023-12-20T02:40:41;16.90;;;15.80;;
11531;SDS011;5822;51.000;5.874;2023-12-20T02:43:06;16.40;;;15.40;;
11531;SDS011;5822;51.000;5.874;2023-12-20T02:45:32;16.80;;;15.70;;
11531;SDS011;5822;51.000;5.874;2023-12-20T02:47:58;17.10;;;16.00;;
11531;SDS011;5822;51.000;5.874;2023-12-20T02:50:23;17.00;;;15.90;;
11531;SDS011;5822;51.000;5.874;2023-12-20T02:52:49;16.80;;;15.70;;
11531;SDS011;5822;51.000;5.874;2023-12-20T02:55:14;17.43;;;16.23;;
11531;SDS011;5822;51.000;5.874;2023-12-20T02:57:40;17.10;;;16.00;;
11531;SDS011;5822;51.000;5.874;2023-12-20T03:00:07;17.00;;;15.90;;
11531;SDS011;5822;51.000;5.874;2023-12-20T03:02:36;16.98;;;15.88;;
11531;SDS011;5822;51.000;5.874;2023-12-20T03:05:02;17.58;;;16.48;;
11531;SDS011;5822;51.000;5.874;2023-12-20T03:07:28;17.10;;;16.00;;
11531;SDS011;5822;51.000;5.874;2023-12-20T03:09:53;17.53;;;16.43;;
11531;SDS011;5822;51.000;5.874;2023-12-20T03:12:19;18.07;;;16.77;;
11531;SDS011;5822;51.000;5.874;2023-12-20T03:14:45;17.77;;;16.50;;
11531;SDS011;5822;51.000;5.874;2023-12-20T03:17:10;17.55;;;16.35;;
11531;SDS011;5822;51.000;5.874;2023-12-20T03:19:36;17.10;;;16.00;;
11531;SDS011;5822;51.000;5.874;2023-12-20T03:22:02;17.75;;;16.63;;
11531;SDS011;5822;51.000;5.874;2023-12-20T03:24:27;18.40;;;17.20;;
11531;SDS011;5822;51.000;5.874;2023-12-20T03:26:53;17.52;;;16.42;;
11531;SDS011;5822;51.000;5.874;2023-12-20T03:29:19;17.88;;;16.67;;
11531;SDS011;5822;51.000;5.874;2023-12-20T03:31:44;17.60;;;16.50;;
11531;SDS011;5822;51.000;5.874;2023-12-20T03:34:10;17.33;;;16.23;;
11531;SDS011;5822;51.000;5.874;2023-12-20T03:36:36;17.25;;;16.13;;
11531;SDS011;5822;51.000;5.874;2023-12-20T03:39:02;17.45;;;16.27;;
11531;SDS011;5822;51.000;5.874;2023-12-20T03:41:28;16.90;;;15.80;;
11531;SDS011;5822;51.000;5.874;2023-12-20T03:43:54;17.48;;;16.30;;
11531;SDS011;5822;51.000;5.874;2023-12-20T03:46:19;17.75;;;16.55;;
11531;SDS011;5822;51.000;5.874;2023-12-20T03:48:45;17.00;;;15.90;;
11531;SDS011;5822;51.000;5.874;2023-12-20T03:51:10;17.10;;;15.95;;
11531;SDS011;5822;51.000;5.874;2023-12-20T03:53:37;17.58;;;16.38;;
11531;SDS011;5822;51.000;5.874;2023-12-20T03:56:02;17.50;;;16.30;;
11531;SDS011;5822;51.000;5.874;2023-12-20T03:58:28;17.17;;;15.98;;
11531;SDS011;5822;51.000;5.874;2023-12-20T04:00:54;17.17;;;16.08;;
11531;SDS011;5822;51.000;5.874;2023-12-20T04:03:20;17.17;;;16.07;;
11531;SDS011;5822;51.000;5.874;2023-12-20T04:05:45;17.00;;;15.90;;
11531;SDS011;5822;51.000;5.874;2023-12-20T04:08:11;17.03;;;15.93;;
11531;SDS011;5822;51.000;5.874;2023-12-20T04:10:37;16.98;;;15.88;;
11531;SDS011;5822;51.000;5.874;2023-12-20T04:13:03;17.05;;;15.95;;
11531;SDS011;5822;51.000;5.874;2023-12-20T04:15:29;16.73;;;15.73;;
11531;SDS011;5822;51.000;5.874;2023-12-20T04:17:55;17.38;;;16.17;;
11531;SDS011;5822;51.000;5.874;2023-12-20T04:20:20;16.90;;;15.80;;
11531;SDS011;5822;51.000;5.874;2023-12-20T04:22:46;16.92;;;15.82;;
11531;SDS011;5822;51.000;5.874;2023-12-20T04:25:11;18.38;;;17.08;;
11531;SDS011;5822;51.000;5.874;2023-12-20T04:27:37;17.87;;;16.67;;
11531;SDS011;5822;51.000;5.874;2023-12-20T04:30:03;17.30;;;16.20;;
11531;SDS011;5822;51.000;5.874;2023-12-20T04:32:29;17.20;;;16.10;;
11531;SDS011;5822;51.000;5.874;2023-12-20T04:34:54;17.55;;;16.35;;
11531;SDS011;5822;51.000;5.874;2023-12-20T04:37:20;17.00;;;15.90;;
11531;SDS011;5822;51.000;5.874;2023-12-20T04:39:46;17.30;;;16.10;;
11531;SDS011;5822;51.000;5.874;2023-12-20T04:42:11;17.00;;;15.90;;
11531;SDS011;5822;51.000;5.874;2023-12-20T04:44:37;17.60;;;16.40;;
11531;SDS011;5822;51.000;5.874;2023-12-20T04:47:02;17.52;;;16.33;;
11531;SDS011;5822;51.000;5.874;2023-12-20T04:49:28;17.50;;;16.40;;
11531;SDS011;5822;51.000;5.874;2023-12-20T04:51:54;17.48;;;16.27;;
11531;SDS011;5822;51.000;5.874;2023-12-20T04:54:20;17.20;;;16.10;;
11531;SDS011;5822;51.000;5.874;2023-12-20T04:56:46;17.53;;;16.33;;
11531;SDS011;5822;51.000;5.874;2023-12-20T04:59:12;17.35;;;16.15;;
11531;SDS011;5822;51.000;5.874;2023-12-20T05:01:38;17.52;;;16.33;;
11531;SDS011;5822;51.000;5.874;2023-12-20T05:04:04;18.30;;;17.00;;
11531;SDS011;5822;51.000;5.874;2023-12-20T05:06:29;18.10;;;16.80;;
11531;SDS011;5822;51.000;5.874;2023-12-20T05:08:55;18.00;;;16.70;;
11531;SDS011;5822;51.000;5.874;2023-12-20T05:11:21;18.23;;;16.93;;
11531;SDS011;5822;51.000;5.874;2023-12-20T05:13:47;18.10;;;16.90;;
11531;SDS011;5822;51.000;5.874;2023-12-20T05:16:12;17.93;;;16.73;;
11531;SDS011;5822;51.000;5.874;2023-12-20T05:18:39;18.20;;;16.90;;
11531;SDS011;5822;51.000;5.874;2023-12-20T05:21:05;18.20;;;16.95;;
11531;SDS011;5822;51.000;5.874;2023-12-20T05:23:31;18.55;;;17.25;;
11531;SDS011;5822;51.000;5.874;2023-12-20T05:25:57;18.40;;;17.10;;
11531;SDS011;5822;51.000;5.874;2023-12-20T05:28:24;18.42;;;17.13;;
11531;SDS011;5822;51.000;5.874;2023-12-20T05:30:49;17.80;;;16.60;;
11531;SDS011;5822;51.000;5.874;2023-12-20T05:33:15;18.33;;;16.93;;
11531;SDS011;5822;51.000;5.874;2023-12-20T05:35:40;18.67;;;17.37;;
11531;SDS011;5822;51.000;5.874;2023-12-20T05:38:06;18.40;;;17.10;;
11531;SDS011;5822;51.000;5.874;2023-12-20T05:40:32;18.40;;;17.10;;
11531;SDS011;5822;51.000;5.874;2023-12-20T05:42:57;18.03;;;16.83;;
11531;SDS011;5822;51.000;5.874;2023-12-20T05:45:23;17.67;;;16.47;;
11531;SDS011;5822;51.000;5.874;2023-12-20T05:47:49;18.27;;;16.87;;
11531;SDS011;5822;51.000;5.874;2023-12-20T05:50:14;18.70;;;17.30;;
11531;SDS011;5822;51.000;5.874;2023-12-20T05:52:40;18.25;;;16.95;;
11531;SDS011;5822;51.000;5.874;2023-12-20T05:55:06;18.33;;;17.03;;
11531;SDS011;5822;51.000;5.874;2023-12-20T05:57:32;18.13;;;16.83;;
11531;SDS011;5822;51.000;5.874;2023-12-20T05:59:57;18.33;;;17.03;;
11531;SDS011;5822;51.000;5.874;2023-12-20T06:02:23;19.27;;;17.77;;
11531;SDS011;5822;51.000;5.874;2023-12-20T06:04:48;18.83;;;17.53;;
11531;SDS011;5822;51.000;5.874;2023-12-20T06:07:15;19.90;;;18.30;;
11531;SDS011;5822;51.000;5.874;2023-12-20T06:09:41;19.27;;;17.87;;
11531;SDS011;5822;51.000;5.874;2023-12-20T06:12:07;18.70;;;17.40;;
11531;SDS011;5822;51.000;5.874;2023-12-20T06:14:35;19.77;;;18.27;;
11531;SDS011;5822;51.000;5.874;2023-12-20T06:17:01;19.33;;;17.92;;
11531;SDS011;5822;51.000;5.874;2023-12-20T06:19:27;19.25;;;17.85;;
11531;SDS011;5822;51.000;5.874;2023-12-20T06:21:53;19.60;;;18.17;;
11531;SDS011;5822;51.000;5.874;2023-12-20T06:24:19;19.60;;;18.10;;
11531;SDS011;5822;51.000;5.874;2023-12-20T06:26:45;19.67;;;18.17;;
11531;SDS011;5822;51.000;5.874;2023-12-20T06:29:10;19.65;;;18.15;;
11531;SDS011;5822;51.000;5.874;2023-12-20T06:31:37;19.15;;;17.75;;
11531;SDS011;5822;51.000;5.874;2023-12-20T06:34:02;20.03;;;18.43;;
11531;SDS011;5822;51.000;5.874;2023-12-20T06:36:28;19.80;;;18.30;;
11531;SDS011;5822;51.000;5.874;2023-12-20T06:38:54;20.20;;;18.67;;
11531;SDS011;5822;51.000;5.874;2023-12-20T06:41:19;20.60;;;18.90;;
11531;SDS011;5822;51.000;5.874;2023-12-20T06:43:45;20.80;;;19.20;;
11531;SDS011;5822;51.000;5.874;2023-12-20T06:46:11;20.33;;;18.73;;
11531;SDS011;5822;51.000;5.874;2023-12-20T06:48:38;20.10;;;18.50;;
11531;SDS011;5822;51.000;5.874;2023-12-20T06:51:04;19.50;;;18.10;;
11531;SDS011;5822;51.000;5.874;2023-12-20T06:53:30;19.58;;;18.08;;
11531;SDS011;5822;51.000;5.874;2023-12-20T06:55:56;19.80;;;18.30;;
11531;SDS011;5822;51.000;5.874;2023-12-20T06:58:22;19.85;;;18.42;;
11531;SDS011;5822;51.000;5.874;2023-12-20T07:00:48;20.20;;;18.60;;
11531;SDS011;5822;51.000;5.874;2023-12-20T07:03:14;20.23;;;18.70;;
11531;SDS011;5822;51.000;5.874;2023-12-20T07:05:39;20.45;;;18.85;;
11531;SDS011;5822;51.000;5.874;2023-12-20T07:08:05;27.27;;;25.58;;
11531;SDS011;5822;51.000;5.874;2023-12-20T07:10:31;32.43;;;30.53;;
11531;SDS011;5822;51.000;5.874;2023-12-20T07:12:57;35.00;;;33.10;;
11531;SDS011;5822;51.000;5.874;2023-12-20T07:15:22;43.10;;;40.90;;
11531;SDS011;5822;51.000;5.874;2023-12-20T07:17:48;44.57;;;42.30;;
11531;SDS011;5822;51.000;5.874;2023-12-20T07:20:14;41.42;;;39.33;;
11531;SDS011;5822;51.000;5.874;2023-12-20T07:22:40;43.13;;;40.92;;
11531;SDS011;5822;51.000;5.874;2023-12-20T07:25:06;32.58;;;30.77;;
11531;SDS011;5822;51.000;5.874;2023-12-20T07:27:32;28.95;;;27.25;;
11531;SDS011;5822;51.000;5.874;2023-12-20T07:29:57;27.40;;;25.90;;
11531;SDS011;5822;51.000;5.874;2023-12-20T07:32:23;20.40;;;19.00;;
11531;SDS011;5822;51.000;5.874;2023-12-20T07:34:49;20.25;;;18.75;;
11531;SDS011;5822;51.000;5.874;2023-12-20T07:37:15;20.40;;;19.00;;
11531;SDS011;5822;51.000;5.874;2023-12-20T07:39:40;20.80;;;19.30;;
11531;SDS011;5822;51.000;5.874;2023-12-20T07:42:07;20.80;;;19.30;;
11531;SDS011;5822;51.000;5.874;2023-12-20T07:44:33;22.27;;;20.73;;
11531;SDS011;5822;51.000;5.874;2023-12-20T07:46:58;23.67;;;21.98;;
11531;SDS011;5822;51.000;5.874;2023-12-20T07:49:24;23.20;;;21.70;;
11531;SDS011;5822;51.000;5.874;2023-12-20T07:51:50;21.60;;;19.90;;
11531;SDS011;5822;51.000;5.874;2023-12-20T07:54:15;21.50;;;20.00;;
11531;SDS011;5822;51.000;5.874;2023-12-20T07:56:41;22.20;;;20.70;;
11531;SDS011;5822;51.000;5.874;2023-12-20T07:59:07;24.65;;;23.05;;
11531;SDS011;5822;51.000;5.874;2023-12-20T08:01:32;25.42;;;23.63;;
11531;SDS011;5822;51.000;5.874;2023-12-20T08:03:58;22.67;;;21.08;;
11531;SDS011;5822;51.000;5.874;2023-12-20T08:06:24;22.20;;;20.60;;
11531;SDS011;5822;51.000;5.874;2023-12-20T08:08:49;22.92;;;21.13;;
11531;SDS011;5822;51.000;5.874;2023-12-20T08:11:15;23.27;;;21.58;;
11531;SDS011;5822;51.000;5.874;2023-12-20T08:13:41;25.50;;;23.63;;
11531;SDS011;5822;51.000;5.874;2023-12-20T08:16:07;22.13;;;20.50;;
11531;SDS011;5822;51.000;5.874;2023-12-20T08:18:33;22.08;;;20.42;;
11531;SDS011;5822;51.000;5.874;2023-12-20T08:20:58;21.25;;;19.75;;
11531;SDS011;5822;51.000;5.874;2023-12-20T08:23:26;21.77;;;20.17;;
11531;SDS011;5822;51.000;5.874;2023-12-20T08:25:52;21.60;;;20.10;;
11531;SDS011;5822;51.000;5.874;2023-12-20T08:28:17;20.10;;;18.70;;
11531;SDS011;5822;51.000;5.874;2023-12-20T08:30:43;20.50;;;19.03;;
11531;SDS011;5822;51.000;5.874;2023-12-20T08:33:08;20.50;;;19.00;;
11531;SDS011;5822;51.000;5.874;2023-12-20T08:35:37;20.98;;;19.40;;
11531;SDS011;5822;51.000;5.874;2023-12-20T08:38:06;24.65;;;23.00;;
11531;SDS011;5822;51.000;5.874;2023-12-20T08:40:32;26.20;;;24.40;;
11531;SDS011;5822;51.000;5.874;2023-12-20T08:42:57;27.08;;;25.38;;
11531;SDS011;5822;51.000;5.874;2023-12-20T08:45:23;22.98;;;21.38;;
11531;SDS011;5822;51.000;5.874;2023-12-20T08:47:49;22.85;;;21.25;;
11531;SDS011;5822;51.000;5.874;2023-12-20T08:50:15;22.90;;;21.30;;
11531;SDS011;5822;51.000;5.874;2023-12-20T08:52:41;24.70;;;22.90;;
11531;SDS011;5822;51.000;5.874;2023-12-20T08:55:09;26.27;;;24.48;;
11531;SDS011;5822;51.000;5.874;2023-12-20T08:57:35;24.05;;;22.35;;
11531;SDS011;5822;51.000;5.874;2023-12-20T09:00:01;22.65;;;21.00;;
11531;SDS011;5822;51.000;5.874;2023-12-20T09:02:28;22.48;;;20.88;;
11531;SDS011;5822;51.000;5.874;2023-12-20T09:04:54;23.00;;;21.20;;
11531;SDS011;5822;51.000;5.874;2023-12-20T09:07:23;23.80;;;22.00;;
11531;SDS011;5822;51.000;5.874;2023-12-20T09:09:50;21.02;;;19.42;;
11531;SDS011;5822;51.000;5.874;2023-12-20T09:12:17;20.58;;;19.08;;
11531;SDS011;5822;51.000;5.874;2023-12-20T09:14:47;21.13;;;19.52;;
11531;SDS011;5822;51.000;5.874;2023-12-20T09:17:14;20.63;;;19.13;;
11531;SDS011;5822;51.000;5.874;2023-12-20T09:19:41;23.35;;;21.70;;
11531;SDS011;5822;51.000;5.874;2023-12-20T09:22:10;21.80;;;20.30;;
11531;SDS011;5822;51.000;5.874;2023-12-20T09:24:36;22.15;;;20.55;;
11531;SDS011;5822;51.000;5.874;2023-12-20T09:27:03;22.20;;;20.70;;
11531;SDS011;5822;51.000;5.874;2023-12-20T09:29:30;23.48;;;21.67;;
11531;SDS011;5822;51.000;5.874;2023-12-20T09:31:56;22.50;;;20.90;;
11531;SDS011;5822;51.000;5.874;2023-12-20T09:34:22;22.73;;;21.02;;
11531;SDS011;5822;51.000;5.874;2023-12-20T09:36:49;22.88;;;21.17;;
11531;SDS011;5822;51.000;5.874;2023-12-20T09:39:15;21.77;;;20.17;;
11531;SDS011;5822;51.000;5.874;2023-12-20T09:41:45;22.35;;;20.75;;
11531;SDS011;5822;51.000;5.874;2023-12-20T09:44:38;21.50;;;19.98;;
11531;SDS011;5822;51.000;5.874;2023-12-20T09:47:07;22.35;;;20.70;;
11531;SDS011;5822;51.000;5.874;2023-12-20T09:49:33;22.10;;;20.40;;
11531;SDS011;5822;51.000;5.874;2023-12-20T09:52:00;21.73;;;20.13;;
11531;SDS011;5822;51.000;5.874;2023-12-20T09:54:26;21.65;;;20.05;;
11531;SDS011;5822;51.000;5.874;2023-12-20T09:56:53;20.70;;;19.10;;
11531;SDS011;5822;51.000;5.874;2023-12-20T09:59:19;20.90;;;19.30;;
11531;SDS011;5822;51.000;5.874;2023-12-20T10:01:45;20.77;;;19.17;;
11531;SDS011;5822;51.000;5.874;2023-12-20T10:04:11;20.70;;;19.10;;
11531;SDS011;5822;51.000;5.874;2023-12-20T10:06:42;22.20;;;20.50;;
11531;SDS011;5822;51.000;5.874;2023-12-20T10:09:08;22.70;;;21.10;;
11531;SDS011;5822;51.000;5.874;2023-12-20T10:11:36;22.23;;;20.73;;
11531;SDS011;5822;51.000;5.874;2023-12-20T10:14:02;22.33;;;20.80;;
11531;SDS011;5822;51.000;5.874;2023-12-20T10:16:28;23.80;;;22.20;;
11531;SDS011;5822;51.000;5.874;2023-12-20T10:18:55;23.35;;;21.75;;
11531;SDS011;5822;51.000;5.874;2023-12-20T10:21:24;24.25;;;22.55;;
11531;SDS011;5822;51.000;5.874;2023-12-20T10:23:54;23.07;;;21.53;;
11531;SDS011;5822;51.000;5.874;2023-12-20T10:26:21;22.73;;;21.13;;
11531;SDS011;5822;51.000;5.874;2023-12-20T10:28:49;21.93;;;20.43;;
11531;SDS011;5822;51.000;5.874;2023-12-20T10:34:11;21.38;;;19.88;;
11531;SDS011;5822;51.000;5.874;2023-12-20T10:36:37;21.60;;;20.00;;
11531;SDS011;5822;51.000;5.874;2023-12-20T10:39:03;21.95;;;20.45;;
11531;SDS011;5822;51.000;5.874;2023-12-20T10:41:32;21.90;;;20.40;;
11531;SDS011;5822;51.000;5.874;2023-12-20T10:44:01;21.30;;;19.80;;
11531;SDS011;5822;51.000;5.874;2023-12-20T10:46:30;22.13;;;20.52;;
11531;SDS011;5822;51.000;5.874;2023-12-20T10:48:57;21.77;;;20.27;;
11531;SDS011;5822;51.000;5.874;2023-12-20T10:51:24;22.20;;;20.60;;
11531;SDS011;5822;51.000;5.874;2023-12-20T10:53:55;20.60;;;19.00;;
11531;SDS011;5822;51.000;5.874;2023-12-20T10:56:21;20.45;;;18.85;;
11531;SDS011;5822;51.000;5.874;2023-12-20T10:58:48;20.23;;;18.77;;
11531;SDS011;5822;51.000;5.874;2023-12-20T11:01:15;20.00;;;18.55;;
11531;SDS011;5822;51.000;5.874;2023-12-20T11:03:53;20.85;;;19.15;;
11531;SDS011;5822;51.000;5.874;2023-12-20T11:17:11;21.23;;;19.80;;
11531;SDS011;5822;51.000;5.874;2023-12-20T11:22:30;21.52;;;20.00;;
11531;SDS011;5822;51.000;5.874;2023-12-20T11:25:06;21.80;;;20.30;;
11531;SDS011;5822;51.000;5.874;2023-12-20T11:27:35;21.40;;;20.00;;
11531;SDS011;5822;51.000;5.874;2023-12-20T11:30:02;20.60;;;19.13;;
11531;SDS011;5822;51.000;5.874;2023-12-20T11:32:32;20.58;;;19.10;;
11531;SDS011;5822;51.000;5.874;2023-12-20T11:37:38;19.50;;;18.17;;
11531;SDS011;5822;51.000;5.874;2023-12-20T11:40:08;20.17;;;18.67;;
11531;SDS011;5822;51.000;5.874;2023-12-20T11:42:45;21.03;;;19.53;;
11531;SDS011;5822;51.000;5.874;2023-12-20T11:45:14;21.00;;;19.45;;
11531;SDS011;5822;51.000;5.874;2023-12-20T11:47:43;20.52;;;19.13;;
11531;SDS011;5822;51.000;5.874;2023-12-20T11:50:12;20.77;;;19.30;;
11531;SDS011;5822;51.000;5.874;2023-12-20T11:52:39;20.67;;;19.20;;
11531;SDS011;5822;51.000;5.874;2023-12-20T11:55:05;20.88;;;19.38;;
11531;SDS011;5822;51.000;5.874;2023-12-20T11:57:31;21.00;;;19.50;;
11531;SDS011;5822;51.000;5.874;2023-12-20T11:59:57;19.90;;;18.50;;
11531;SDS011;5822;51.000;5.874;2023-12-20T12:02:22;19.77;;;18.43;;
11531;SDS011;5822;51.000;5.874;2023-12-20T12:04:49;19.60;;;18.20;;
11531;SDS011;5822;51.000;5.874;2023-12-20T12:07:17;19.85;;;18.45;;
11531;SDS011;5822;51.000;5.874;2023-12-20T12:09:43;19.60;;;18.30;;
11531;SDS011;5822;51.000;5.874;2023-12-20T12:12:10;20.35;;;18.88;;
11531;SDS011;5822;51.000;5.874;2023-12-20T12:14:37;19.38;;;18.00;;
11531;SDS011;5822;51.000;5.874;2023-12-20T12:17:03;19.02;;;17.73;;
11531;SDS011;5822;51.000;5.874;2023-12-20T12:19:29;19.30;;;18.00;;
11531;SDS011;5822;51.000;5.874;2023-12-20T12:24:47;19.25;;;17.85;;
11531;SDS011;5822;51.000;5.874;2023-12-20T12:27:14;19.02;;;17.63;;
11531;SDS011;5822;51.000;5.874;2023-12-20T12:29:40;19.40;;;18.00;;
11531;SDS011;5822;51.000;5.874;2023-12-20T12:32:24;19.30;;;17.90;;
11531;SDS011;5822;51.000;5.874;2023-12-20T12:34:50;21.23;;;19.73;;
11531;SDS011;5822;51.000;5.874;2023-12-20T12:37:16;20.93;;;19.43;;
11531;SDS011;5822;51.000;5.874;2023-12-20T12:39:42;20.97;;;19.47;;
11531;SDS011;5822;51.000;5.874;2023-12-20T12:42:07;21.47;;;19.97;;
11531;SDS011;5822;51.000;5.874;2023-12-20T12:44:33;22.23;;;20.73;;
11531;SDS011;5822;51.000;5.874;2023-12-20T12:46:59;22.50;;;20.90;;
11531;SDS011;5822;51.000;5.874;2023-12-20T12:49:24;24.60;;;22.90;;
11531;SDS011;5822;51.000;5.874;2023-12-20T12:51:50;24.02;;;22.35;;
11531;SDS011;5822;51.000;5.874;2023-12-20T12:54:16;22.98;;;21.27;;
11531;SDS011;5822;51.000;5.874;2023-12-20T12:56:43;22.55;;;20.95;;
11531;SDS011;5822;51.000;5.874;2023-12-20T12:59:09;22.25;;;20.65;;
11531;SDS011;5822;51.000;5.874;2023-12-20T13:01:35;22.25;;;20.67;;
11531;SDS011;5822;51.000;5.874;2023-12-20T13:04:00;22.63;;;21.02;;
11531;SDS011;5822;51.000;5.874;2023-12-20T13:06:28;21.92;;;20.33;;
11531;SDS011;5822;51.000;5.874;2023-12-20T13:08:54;22.43;;;20.83;;
11531;SDS011;5822;51.000;5.874;2023-12-20T13:11:20;22.37;;;20.70;;
11531;SDS011;5822;51.000;5.874;2023-12-20T13:13:46;21.10;;;19.60;;
11531;SDS011;5822;51.000;5.874;2023-12-20T13:16:12;20.48;;;19.08;;
11531;SDS011;5822;51.000;5.874;2023-12-20T13:18:38;20.65;;;19.15;;
11531;SDS011;5822;51.000;5.874;2023-12-20T13:21:07;20.13;;;18.70;;
11531;SDS011;5822;51.000;5.874;2023-12-20T13:23:33;20.90;;;19.30;;
11531;SDS011;5822;51.000;5.874;2023-12-20T13:25:59;24.33;;;22.73;;
11531;SDS011;5822;51.000;5.874;2023-12-20T13:28:25;25.33;;;23.53;;
11531;SDS011;5822;51.000;5.874;2023-12-20T13:30:50;20.00;;;18.50;;
11531;SDS011;5822;51.000;5.874;2023-12-20T13:33:16;19.70;;;18.30;;
11531;SDS011;5822;51.000;5.874;2023-12-20T13:35:41;19.63;;;18.23;;
11531;SDS011;5822;51.000;5.874;2023-12-20T13:38:07;20.60;;;19.10;;
11531;SDS011;5822;51.000;5.874;2023-12-20T13:40:33;20.60;;;19.20;;
11531;SDS011;5822;51.000;5.874;2023-12-20T13:42:58;21.65;;;20.10;;
11531;SDS011;5822;51.000;5.874;2023-12-20T13:45:24;21.02;;;19.52;;
11531;SDS011;5822;51.000;5.874;2023-12-20T13:47:50;20.80;;;19.30;;
11531;SDS011;5822;51.000;5.874;2023-12-20T13:50:16;20.73;;;19.23;;
11531;SDS011;5822;51.000;5.874;2023-12-20T13:52:41;20.97;;;19.47;;
11531;SDS011;5822;51.000;5.874;2023-12-20T13:55:07;21.13;;;19.63;;
11531;SDS011;5822;51.000;5.874;2023-12-20T13:57:34;21.20;;;19.70;;
11531;SDS011;5822;51.000;5.874;2023-12-20T14:00:02;21.35;;;19.85;;
11531;SDS011;5822;51.000;5.874;2023-12-20T14:02:29;21.40;;;19.80;;
11531;SDS011;5822;51.000;5.874;2023-12-20T14:04:55;21.30;;;19.80;;
11531;SDS011;5822;51.000;5.874;2023-12-20T14:07:21;20.20;;;18.80;;
11531;SDS011;5822;51.000;5.874;2023-12-20T14:09:46;20.13;;;18.73;;
11531;SDS011;5822;51.000;5.874;2023-12-20T14:12:12;20.20;;;18.80;;
11531;SDS011;5822;51.000;5.874;2023-12-20T14:14:38;19.80;;;18.40;;
11531;SDS011;5822;51.000;5.874;2023-12-20T14:17:04;20.07;;;18.57;;
11531;SDS011;5822;51.000;5.874;2023-12-20T14:19:32;20.65;;;19.15;;
11531;SDS011;5822;51.000;5.874;2023-12-20T14:21:58;20.60;;;19.10;;
11531;SDS011;5822;51.000;5.874;2023-12-20T14:24:28;21.10;;;19.50;;
11531;SDS011;5822;51.000;5.874;2023-12-20T14:26:53;20.42;;;19.02;;
11531;SDS011;5822;51.000;5.874;2023-12-20T14:29:19;20.20;;;18.70;;
11531;SDS011;5822;51.000;5.874;2023-12-20T14:31:45;20.40;;;18.90;;
11531;SDS011;5822;51.000;5.874;2023-12-20T14:34:10;19.20;;;17.90;;
11531;SDS011;5822;51.000;5.874;2023-12-20T14:36:36;20.20;;;18.70;;
11531;SDS011;5822;51.000;5.874;2023-12-20T14:39:02;20.30;;;18.70;;
11531;SDS011;5822;51.000;5.874;2023-12-20T14:41:29;20.40;;;19.00;;
11531;SDS011;5822;51.000;5.874;2023-12-20T14:43:55;20.58;;;19.08;;
11531;SDS011;5822;51.000;5.874;2023-12-20T14:46:21;20.63;;;19.13;;
11531;SDS011;5822;51.000;5.874;2023-12-20T14:48:47;20.08;;;18.67;;